createdAt,value
2022-11-24T00:02:13.487Z,86.64
2022-11-24T00:04:42.830Z,87.14
2022-11-24T00:07:13.577Z,86.21
2022-11-24T00:09:42.927Z,85.42
2022-11-24T00:12:12.503Z,85.81
2022-11-24T00:14:41.784Z,86.20
2022-11-24T00:17:11.234Z,86.62
2022-11-24T00:19:40.590Z,86.94
2022-11-24T00:22:09.809Z,87.77
2022-11-24T00:24:40.528Z,87.17
2022-11-24T00:27:10.195Z,88.13
2022-11-24T00:29:39.455Z,90.87
2022-11-24T00:32:08.733Z,90.92
2022-11-24T00:34:38.032Z,90.34
2022-11-24T00:37:07.331Z,90.57
2022-11-24T00:39:36.647Z,88.84
2022-11-24T00:42:07.381Z,88.64
2022-11-24T00:44:36.669Z,88.65
2022-11-24T00:47:06.047Z,88.32
2022-11-24T00:49:36.524Z,88.23
2022-11-24T00:52:06.275Z,88.14
2022-11-24T00:54:35.671Z,88.58
2022-11-24T00:57:06.546Z,88.24
2022-11-24T00:59:35.798Z,89.46
2022-11-24T01:02:05.077Z,88.98
2022-11-24T01:04:35.678Z,89.15
2022-11-24T01:07:05.580Z,89.55
2022-11-24T01:09:34.938Z,89.74
2022-11-24T01:12:04.435Z,89.83
2022-11-24T01:14:35.578Z,89.44
2022-11-24T01:17:25.298Z,89.01
2022-11-24T01:19:54.615Z,88.69
2022-11-24T01:22:25.163Z,88.97
2022-11-24T01:24:54.438Z,89.33
2022-11-24T01:27:23.720Z,90.15
2022-11-24T01:29:54.380Z,90.00
2022-11-24T01:32:23.768Z,89.24
2022-11-24T01:34:53.156Z,88.93
2022-11-24T01:37:22.395Z,88.53
2022-11-24T01:39:51.702Z,88.55
2022-11-24T01:42:21.099Z,89.14
2022-11-24T01:44:53.394Z,89.85
2022-11-24T01:47:34.365Z,89.75
2022-11-24T01:50:06.029Z,90.23
2022-11-24T01:52:39.715Z,90.29
2022-11-24T01:55:14.318Z,89.38
2022-11-24T01:57:49.442Z,90.28
2022-11-24T02:00:19.579Z,90.21
2022-11-24T02:02:50.416Z,89.79
2022-11-24T02:05:28.276Z,91.01
2022-11-24T02:08:00.659Z,90.46
2022-11-24T02:10:31.106Z,90.79
2022-11-24T02:13:01.979Z,90.43
2022-11-24T02:15:31.501Z,92.00
2022-11-24T02:18:02.538Z,92.96
2022-11-24T02:20:32.034Z,93.25
2022-11-24T02:23:06.859Z,91.65
2022-11-24T02:25:46.327Z,92.81
2022-11-24T02:28:20.438Z,92.55
2022-11-24T02:30:51.152Z,93.04
2022-11-24T02:33:22.844Z,93.72
2022-11-24T02:35:52.338Z,93.63
2022-11-24T02:38:30.892Z,92.81
2022-11-24T02:41:01.895Z,92.26
2022-11-24T02:43:37.462Z,92.81
2022-11-24T02:46:07.040Z,93.70
2022-11-24T02:48:36.449Z,94.90
2022-11-24T02:51:06.161Z,95.31
2022-11-24T02:53:35.679Z,95.80
2022-11-24T02:56:05.192Z,95.94
2022-11-24T02:58:36.038Z,95.55
2022-11-24T03:01:05.592Z,96.22
2022-11-24T03:03:35.085Z,96.85
2022-11-24T03:06:04.453Z,97.31
2022-11-24T03:08:34.268Z,96.90
2022-11-24T03:11:03.767Z,97.95
2022-11-24T03:13:33.055Z,98.43
2022-11-24T03:16:03.718Z,98.25
2022-11-24T03:18:33.038Z,98.43
2022-11-24T03:21:02.383Z,98.65
2022-11-24T03:23:31.707Z,98.52
2022-11-24T03:26:09.198Z,98.15
2022-11-24T03:28:38.572Z,97.91
2022-11-24T03:31:10.182Z,98.66
2022-11-24T03:33:40.211Z,97.94
2022-11-24T03:36:10.491Z,98.46
2022-11-24T03:38:39.861Z,97.40
2022-11-24T03:41:09.229Z,95.33
2022-11-24T03:43:43.422Z,94.49
2022-11-24T03:46:15.030Z,94.77
2022-11-24T03:48:44.579Z,94.25
2022-11-24T03:51:13.869Z,94.23
2022-11-24T03:53:43.179Z,94.81
2022-11-24T03:56:12.520Z,94.10
2022-11-24T03:58:41.829Z,93.99
2022-11-24T04:01:11.125Z,94.02
2022-11-24T04:03:42.247Z,92.63
2022-11-24T04:06:12.157Z,92.20
2022-11-24T04:08:41.447Z,92.01
2022-11-24T04:11:30.901Z,91.50
2022-11-24T04:13:59.189Z,91.68
2022-11-24T04:16:28.781Z,90.88
2022-11-24T04:18:59.529Z,90.54
2022-11-24T04:21:28.827Z,90.69
2022-11-24T04:23:58.158Z,90.77
2022-11-24T04:26:27.830Z,89.93
2022-11-24T04:28:57.354Z,90.59
2022-11-24T04:31:26.897Z,89.74
2022-11-24T04:33:56.299Z,89.62
2022-11-24T04:36:27.010Z,89.35
2022-11-24T04:39:24.790Z,88.44
2022-11-24T04:41:45.717Z,88.91
2022-11-24T04:44:15.420Z,90.19
2022-11-24T04:46:44.791Z,90.41
2022-11-24T04:49:14.147Z,91.29
2022-11-24T04:51:45.186Z,91.35
2022-11-24T04:54:15.398Z,91.99
2022-11-24T04:56:45.380Z,92.74
2022-11-24T04:59:16.067Z,94.16
2022-11-24T05:01:46.550Z,94.79
2022-11-24T05:04:17.509Z,94.59
2022-11-24T05:06:48.696Z,94.06
2022-11-24T05:09:18.813Z,92.78
2022-11-24T05:11:48.166Z,91.67
2022-11-24T05:14:17.491Z,90.55
2022-11-24T05:16:49.580Z,88.88
2022-11-24T05:19:19.097Z,88.57
2022-11-24T05:21:49.730Z,89.75
2022-11-24T05:24:19.052Z,90.11
2022-11-24T05:26:48.451Z,89.42
2022-11-24T05:29:17.844Z,88.72
2022-11-24T05:31:47.324Z,89.36
2022-11-24T05:34:17.130Z,89.71
2022-11-24T05:36:56.456Z,89.72
2022-11-24T05:39:29.278Z,90.38
2022-11-24T05:41:58.568Z,89.48
2022-11-24T05:44:27.813Z,88.94
2022-11-24T05:46:57.460Z,88.76
2022-11-24T05:49:26.748Z,88.61
2022-11-24T05:51:56.042Z,89.42
2022-11-24T05:54:25.400Z,91.07
2022-11-24T05:56:57.120Z,91.32
2022-11-24T05:59:26.577Z,90.34
2022-11-24T06:01:56.006Z,90.43
2022-11-24T06:04:25.433Z,89.77
2022-11-24T06:06:54.793Z,89.65
2022-11-24T06:09:24.086Z,89.94
2022-11-24T06:11:53.328Z,90.81
2022-11-24T06:14:24.469Z,90.70
2022-11-24T06:16:53.826Z,90.45
2022-11-24T06:19:23.289Z,92.04
2022-11-24T06:21:52.775Z,92.40
2022-11-24T06:24:21.979Z,93.18
2022-11-24T06:26:51.285Z,93.13
2022-11-24T06:29:20.707Z,93.31
2022-11-24T06:31:51.939Z,94.06
2022-11-24T06:34:21.425Z,95.10
2022-11-24T06:36:50.714Z,95.51
2022-11-24T06:39:20.062Z,95.05
2022-11-24T06:41:52.529Z,94.99
2022-11-24T06:44:22.818Z,95.81
2022-11-24T06:46:53.696Z,95.18
2022-11-24T06:49:23.013Z,94.25
2022-11-24T06:51:52.406Z,93.17
2022-11-24T06:54:22.380Z,93.55
2022-11-24T06:56:51.725Z,93.38
2022-11-24T06:59:21.909Z,93.49
2022-11-24T07:02:11.980Z,93.12
2022-11-24T07:04:41.234Z,93.30
2022-11-24T07:07:10.816Z,93.36
2022-11-24T07:09:40.290Z,93.10
2022-11-24T07:12:18.288Z,93.72
2022-11-24T07:14:47.604Z,93.67
2022-11-24T07:17:18.281Z,94.87
2022-11-24T07:19:47.646Z,94.96
2022-11-24T07:22:16.931Z,95.31
2022-11-24T07:24:46.270Z,95.47
2022-11-24T07:27:15.609Z,96.57
2022-11-24T07:29:45.159Z,96.81
2022-11-24T07:32:14.486Z,97.36
2022-11-24T07:34:45.249Z,97.87
2022-11-24T07:37:14.580Z,98.20
2022-11-24T07:39:43.888Z,99.19
2022-11-24T07:42:13.306Z,99.32
2022-11-24T07:44:42.627Z,98.93
2022-11-24T07:47:11.970Z,99.47
2022-11-24T07:49:41.410Z,97.31
2022-11-24T07:52:12.257Z,97.21
2022-11-24T07:54:41.748Z,97.65
2022-11-24T07:57:11.007Z,98.16
2022-11-24T07:59:40.377Z,97.25
2022-11-24T08:02:11.569Z,96.71
2022-11-24T08:04:40.946Z,97.82
2022-11-24T08:07:11.879Z,97.55
2022-11-24T08:09:41.317Z,97.11
2022-11-24T08:12:10.821Z,96.71
2022-11-24T08:14:40.140Z,95.48
2022-11-24T08:17:09.635Z,94.53
2022-11-24T08:19:39.529Z,94.33
2022-11-24T08:22:09.036Z,94.36
2022-11-24T08:24:46.363Z,94.21
2022-11-24T08:27:16.523Z,94.40
2022-11-24T08:29:46.519Z,94.68
2022-11-24T08:32:22.074Z,94.74
2022-11-24T08:34:52.208Z,94.19
2022-11-24T08:37:27.879Z,93.40
2022-11-24T08:39:58.720Z,92.43
2022-11-24T08:42:28.100Z,93.12
2022-11-24T08:44:59.159Z,93.16
2022-11-24T08:47:28.740Z,92.02
2022-11-24T08:49:58.186Z,91.23
2022-11-24T08:52:27.555Z,90.74
2022-11-24T08:54:58.551Z,89.50
2022-11-24T08:57:27.847Z,88.94
2022-11-24T08:59:57.152Z,89.37
2022-11-24T09:02:26.540Z,90.27
2022-11-24T09:04:55.811Z,91.24
2022-11-24T09:07:25.404Z,90.96
2022-11-24T09:09:54.817Z,90.47
2022-11-24T09:12:25.601Z,90.62
2022-11-24T09:14:54.971Z,90.08
2022-11-24T09:17:24.361Z,90.96
2022-11-24T09:19:53.639Z,91.21
2022-11-24T09:22:23.000Z,91.31
2022-11-24T09:24:52.300Z,91.81
2022-11-24T09:27:21.647Z,91.65
2022-11-24T09:29:52.453Z,90.78
2022-11-24T09:32:21.781Z,92.17
2022-11-24T09:34:51.948Z,90.33
2022-11-24T09:37:21.268Z,89.44
2022-11-24T09:39:50.702Z,90.71
2022-11-24T09:42:34.882Z,91.21
2022-11-24T09:45:26.310Z,90.56
2022-11-24T09:48:10.083Z,90.48
2022-11-24T09:50:40.374Z,90.17
2022-11-24T09:53:17.468Z,90.10
2022-11-24T09:55:48.877Z,89.44
2022-11-24T09:58:33.807Z,88.91
2022-11-24T10:01:09.252Z,88.92
2022-11-24T10:03:43.603Z,88.65
2022-11-24T10:06:23.681Z,89.66
2022-11-24T10:09:14.523Z,90.03
2022-11-24T10:11:52.431Z,89.98
2022-11-24T10:15:02.530Z,89.44
2022-11-24T10:17:56.531Z,89.44
2022-11-24T10:20:35.521Z,89.21
2022-11-24T10:23:22.737Z,88.87
2022-11-24T10:25:58.222Z,88.53
2022-11-24T10:28:33.599Z,88.76
2022-11-24T10:31:20.043Z,88.49
2022-11-24T10:33:51.306Z,89.66
2022-11-24T10:36:50.890Z,90.95
2022-11-24T10:39:24.960Z,92.40
2022-11-24T10:42:00.561Z,92.81
2022-11-24T10:44:30.379Z,92.91
2022-11-24T10:46:59.813Z,93.78
2022-11-24T10:49:33.794Z,93.64
2022-11-24T10:52:09.349Z,93.46
2022-11-24T10:54:56.259Z,93.89
2022-11-24T10:57:37.431Z,95.21
2022-11-24T11:00:36.097Z,96.26
2022-11-24T11:03:18.389Z,96.64
2022-11-24T11:05:54.191Z,97.29
2022-11-24T11:08:26.795Z,97.37
2022-11-24T11:11:20.849Z,97.41
2022-11-24T11:14:01.649Z,97.45
2022-11-24T11:16:36.773Z,96.09
2022-11-24T11:19:26.123Z,94.56
2022-11-24T11:22:03.810Z,94.10
2022-11-24T11:24:33.899Z,92.95
2022-11-24T11:27:05.013Z,91.77
2022-11-24T11:35:14.809Z,91.30
2022-11-24T11:37:46.712Z,90.04
2022-11-24T11:40:19.071Z,90.31
2022-11-24T11:43:02.372Z,89.37
2022-11-24T11:45:37.039Z,89.50
2022-11-24T11:48:28.311Z,89.47
2022-11-24T11:51:22.783Z,90.06
2022-11-24T11:54:04.840Z,90.13
2022-11-24T11:56:40.475Z,91.37
2022-11-24T11:59:31.891Z,89.51
2022-11-24T12:02:26.256Z,90.74
2022-11-24T12:05:00.640Z,90.95
2022-11-24T12:07:53.631Z,90.92
2022-11-24T12:10:32.939Z,89.73
2022-11-24T12:13:24.922Z,89.75
2022-11-24T12:15:57.673Z,90.22
2022-11-24T12:18:57.280Z,91.13
2022-11-24T12:21:33.942Z,90.89
2022-11-24T12:24:12.122Z,90.86
2022-11-24T12:26:46.623Z,88.14
2022-11-24T12:29:35.383Z,89.24
2022-11-24T12:32:12.679Z,88.53
2022-11-24T12:34:52.605Z,88.70
2022-11-24T12:37:43.737Z,88.35
2022-11-24T12:40:19.115Z,88.23
2022-11-24T12:43:01.297Z,88.14
2022-11-24T12:45:40.206Z,88.58
2022-11-24T12:48:20.266Z,88.44
2022-11-24T12:50:53.054Z,88.45
2022-11-24T12:53:26.792Z,87.71
2022-11-24T12:56:06.422Z,88.48
2022-11-24T12:58:45.915Z,88.57
2022-11-24T13:01:24.599Z,89.10
2022-11-24T13:04:07.722Z,89.12
2022-11-24T13:06:49.466Z,89.17
2022-11-24T13:09:19.355Z,89.66
2022-11-24T13:11:50.453Z,88.70
2022-11-24T13:14:23.909Z,89.40
2022-11-24T13:19:45.390Z,89.58
2022-11-24T13:22:24.720Z,89.62
2022-11-24T13:25:16.180Z,89.57
2022-11-24T13:27:48.449Z,89.77
2022-11-24T13:30:59.621Z,89.77
2022-11-24T13:33:35.580Z,90.13
2022-11-24T13:36:35.858Z,90.28
2022-11-24T13:39:19.293Z,91.03
2022-11-24T13:42:41.008Z,90.76
2022-11-24T13:45:03.311Z,90.79
2022-11-24T13:47:42.167Z,90.50
2022-11-24T13:50:24.377Z,90.44
2022-11-24T13:53:01.691Z,90.72
2022-11-24T13:55:38.977Z,90.95
2022-11-24T13:58:31.075Z,90.94
2022-11-24T14:01:08.297Z,90.13
2022-11-24T14:03:47.549Z,89.74
2022-11-24T14:06:35.738Z,89.69
2022-11-24T14:09:22.959Z,90.15
2022-11-24T14:12:07.764Z,89.52
2022-11-24T14:14:37.458Z,89.46
2022-11-24T14:17:18.429Z,89.13
2022-11-24T14:19:49.291Z,89.66
2022-11-24T14:22:23.171Z,89.67
2022-11-24T14:25:03.472Z,89.79
2022-11-24T14:27:35.675Z,90.60
2022-11-24T14:30:07.129Z,90.57
2022-11-24T14:32:37.958Z,90.50
2022-11-24T14:35:25.672Z,91.31
2022-11-24T14:37:57.041Z,91.03
2022-11-24T14:40:44.177Z,91.15
2022-11-24T14:43:21.214Z,91.12
2022-11-24T14:45:52.587Z,91.65
2022-11-24T14:48:27.118Z,91.65
2022-11-24T14:51:07.652Z,91.20
2022-11-24T14:53:42.278Z,91.82
2022-11-24T14:56:24.026Z,92.32
2022-11-24T14:58:53.582Z,92.53
2022-11-24T15:01:32.929Z,92.11
2022-11-24T15:04:32.826Z,91.80
2022-11-24T15:07:17.955Z,92.40
2022-11-24T15:09:53.918Z,92.26
2022-11-24T15:12:29.270Z,91.80
2022-11-24T15:15:01.718Z,92.44
2022-11-24T15:17:32.806Z,91.35
2022-11-24T15:20:05.445Z,91.25
2022-11-24T15:22:40.738Z,91.73
2022-11-24T15:25:33.784Z,91.79
2022-11-24T15:28:03.248Z,91.48
2022-11-24T15:30:35.475Z,91.20
2022-11-24T15:33:12.361Z,90.92
2022-11-24T15:35:41.799Z,91.76
2022-11-24T15:38:11.498Z,91.71
2022-11-24T15:40:45.201Z,91.35
2022-11-24T15:43:22.958Z,91.98
2022-11-24T15:45:52.380Z,92.17
2022-11-24T15:48:22.168Z,91.87
2022-11-24T15:50:53.105Z,91.16
2022-11-24T15:53:25.939Z,92.23
2022-11-24T15:55:57.670Z,91.86
2022-11-24T15:58:27.386Z,92.32
2022-11-24T16:00:56.830Z,92.63
2022-11-24T16:06:24.193Z,92.77
2022-11-24T16:08:54.683Z,93.03
2022-11-24T16:11:25.711Z,93.50
2022-11-24T16:13:55.428Z,93.67
2022-11-24T16:16:26.062Z,94.76
2022-11-24T16:18:55.511Z,95.05
2022-11-24T16:21:24.989Z,94.56
2022-11-24T16:23:55.200Z,93.48
2022-11-24T16:26:26.080Z,93.32
2022-11-24T16:28:55.560Z,94.88
2022-11-24T16:31:24.984Z,95.46
2022-11-24T16:33:54.335Z,95.93
2022-11-24T16:36:23.803Z,95.70
2022-11-24T16:38:53.190Z,95.54
2022-11-24T16:41:22.769Z,96.09
2022-11-24T16:43:54.093Z,96.00
2022-11-24T16:46:24.816Z,93.75
2022-11-24T16:48:56.329Z,93.90
2022-11-24T16:51:28.781Z,94.95
2022-11-24T16:54:03.923Z,96.32
2022-11-24T16:56:33.383Z,96.34
2022-11-24T16:59:04.522Z,96.14
2022-11-24T17:01:34.137Z,95.58
2022-11-24T17:04:07.028Z,95.60
2022-11-24T17:06:39.028Z,96.12
2022-11-24T17:09:08.484Z,95.98
2022-11-24T17:11:47.043Z,96.12
2022-11-24T17:14:17.767Z,96.98
2022-11-24T17:16:47.190Z,96.96
2022-11-24T17:19:16.708Z,97.37
2022-11-24T17:21:46.676Z,96.83
2022-11-24T17:24:18.316Z,96.89
2022-11-24T17:26:49.270Z,95.28
2022-11-24T17:29:30.231Z,94.74
2022-11-24T17:31:59.686Z,94.42
2022-11-24T17:34:29.197Z,93.93
2022-11-24T17:36:58.685Z,94.21
2022-11-24T17:39:28.182Z,94.68
2022-11-24T17:41:57.511Z,95.62
2022-11-24T17:44:28.351Z,96.52
2022-11-24T17:46:59.089Z,97.86
2022-11-24T17:49:28.490Z,97.55
2022-11-24T17:51:57.920Z,97.15
2022-11-24T17:57:16.834Z,97.42
2022-11-24T17:59:47.696Z,97.82
2022-11-24T18:02:17.211Z,98.38
2022-11-24T18:04:46.652Z,98.80
2022-11-24T18:07:16.111Z,99.05
2022-11-24T18:09:45.637Z,97.40
2022-11-24T18:12:15.292Z,97.69
2022-11-24T18:14:44.988Z,97.98
2022-11-24T18:17:15.931Z,98.25
2022-11-24T18:19:45.370Z,99.03
2022-11-24T18:22:14.913Z,98.92
2022-11-24T18:24:44.664Z,98.66
2022-11-24T18:27:14.088Z,98.33
2022-11-24T18:29:43.568Z,98.89
2022-11-24T18:32:13.033Z,99.00
2022-11-24T18:34:43.927Z,98.71
2022-11-24T18:37:15.120Z,98.99
2022-11-24T18:39:44.970Z,98.80
2022-11-24T18:42:14.263Z,99.33
2022-11-24T18:44:43.761Z,98.21
2022-11-24T18:47:13.432Z,95.44
2022-11-24T18:49:44.432Z,94.82
2022-11-24T18:52:14.251Z,94.14
2022-11-24T18:54:44.989Z,93.72
2022-11-24T18:57:14.797Z,92.80
2022-11-24T18:59:44.219Z,94.35
2022-11-24T19:02:13.700Z,95.48
2022-11-24T19:04:44.597Z,96.14
2022-11-24T19:07:17.175Z,97.39
2022-11-24T19:09:46.657Z,99.11
2022-11-24T19:12:16.076Z,98.88
2022-11-24T19:14:45.556Z,97.38
2022-11-24T19:17:15.341Z,95.06
2022-11-24T19:19:46.829Z,94.97
2022-11-24T19:22:16.972Z,95.99
2022-11-24T19:24:46.868Z,98.19
2022-11-24T19:27:17.066Z,98.12
2022-11-24T19:29:47.227Z,97.78
2022-11-24T19:32:17.229Z,99.43
2022-11-24T19:34:48.130Z,99.41
2022-11-24T19:37:17.940Z,98.21
2022-11-24T19:39:47.989Z,97.71
2022-11-24T19:42:17.951Z,98.33
2022-11-24T19:44:52.970Z,98.88
2022-11-24T19:47:25.679Z,98.52
2022-11-24T19:49:56.933Z,99.50
2022-11-24T19:52:26.396Z,98.47
2022-11-24T19:54:55.920Z,98.36
2022-11-24T19:57:25.451Z,97.12
2022-11-24T19:59:55.221Z,96.76
2022-11-24T20:02:24.984Z,97.64
2022-11-24T20:04:55.969Z,97.48
2022-11-24T20:07:25.372Z,98.27
2022-11-24T20:09:54.834Z,98.95
2022-11-24T20:12:24.204Z,99.04
2022-11-24T20:14:53.546Z,98.59
2022-11-24T20:17:23.138Z,98.28
2022-11-24T20:19:52.459Z,98.85
2022-11-24T20:22:23.651Z,97.49
2022-11-24T20:24:53.079Z,96.79
2022-11-24T20:27:22.410Z,97.00
2022-11-24T20:29:51.808Z,96.96
2022-11-24T20:32:21.579Z,96.75
2022-11-24T20:34:50.926Z,97.86
2022-11-24T20:37:20.609Z,97.21
2022-11-24T20:39:52.251Z,96.03
2022-11-24T20:42:21.790Z,95.04
2022-11-24T20:44:53.022Z,92.98
2022-11-24T20:47:23.018Z,93.67
2022-11-24T20:49:52.495Z,94.67
2022-11-24T20:52:21.826Z,96.86
2022-11-24T20:54:52.559Z,97.60
2022-11-24T20:57:22.680Z,97.35
2022-11-24T20:59:52.601Z,96.38
2022-11-24T21:02:22.011Z,96.53
2022-11-24T21:04:51.827Z,96.60
2022-11-24T21:07:21.223Z,97.62
2022-11-24T21:09:50.622Z,98.19
2022-11-24T21:12:21.455Z,97.63
2022-11-24T21:14:50.868Z,97.23
2022-11-24T21:17:20.217Z,97.25
2022-11-24T21:19:49.547Z,97.25
2022-11-24T21:22:18.830Z,96.66
2022-11-24T21:24:48.270Z,97.47
2022-11-24T21:27:17.579Z,97.05
2022-11-24T21:29:48.266Z,98.00
2022-11-24T21:32:17.670Z,97.22
2022-11-24T21:34:47.440Z,96.42
2022-11-24T21:37:16.758Z,96.29
2022-11-24T21:39:46.849Z,95.80
2022-11-24T21:42:16.194Z,95.92
2022-11-24T21:44:45.578Z,96.57
2022-11-24T21:47:16.588Z,96.13
2022-11-24T21:49:46.074Z,96.30
2022-11-24T21:52:15.660Z,94.60
2022-11-24T21:54:45.011Z,95.04
2022-11-24T21:57:14.369Z,95.33
2022-11-24T21:59:43.736Z,95.83
2022-11-24T22:02:13.818Z,96.46
2022-11-24T22:04:44.684Z,95.68
2022-11-24T22:07:14.169Z,97.26
2022-11-24T22:09:43.642Z,95.94
2022-11-24T22:12:12.967Z,93.91
2022-11-24T22:14:42.464Z,93.57
2022-11-24T22:17:13.564Z,92.99
2022-11-24T22:19:44.621Z,93.16
2022-11-24T22:22:13.992Z,93.49
2022-11-24T22:24:43.318Z,92.93
2022-11-24T22:27:12.588Z,92.88
2022-11-24T22:29:41.895Z,93.38
2022-11-24T22:32:11.254Z,91.83
2022-11-24T22:34:40.717Z,91.21
2022-11-24T22:37:11.541Z,91.46
2022-11-24T22:39:40.949Z,92.53
2022-11-24T22:42:10.279Z,94.25
2022-11-24T22:44:39.611Z,95.40
2022-11-24T22:47:09.044Z,94.67
2022-11-24T22:49:38.583Z,94.77
2022-11-24T22:52:08.047Z,95.38
2022-11-24T22:54:38.920Z,93.90
2022-11-24T22:57:08.284Z,94.23
2022-11-24T22:59:37.607Z,94.72
2022-11-24T23:02:06.931Z,93.20
2022-11-24T23:04:36.436Z,92.79
2022-11-24T23:07:06.818Z,93.67
2022-11-24T23:09:36.231Z,95.51
2022-11-24T23:12:07.472Z,95.38
2022-11-24T23:14:36.967Z,94.07
2022-11-24T23:17:06.750Z,93.48
2022-11-24T23:19:36.063Z,94.19
2022-11-24T23:22:05.376Z,93.28
2022-11-24T23:24:38.296Z,93.31
2022-11-24T23:27:09.028Z,93.95
2022-11-24T23:29:38.459Z,94.22
2022-11-24T23:32:08.036Z,93.37
2022-11-24T23:34:37.452Z,93.32
2022-11-24T23:37:06.853Z,94.13
2022-11-24T23:39:36.270Z,94.59
2022-11-24T23:42:05.770Z,94.64
2022-11-24T23:44:36.758Z,94.47
2022-11-24T23:47:06.799Z,93.97
2022-11-24T23:49:36.109Z,94.26
2022-11-24T23:52:05.520Z,94.28
2022-11-24T23:54:35.000Z,94.56
2022-11-24T23:57:04.540Z,94.18
2022-11-24T23:59:33.808Z,94.72
